sensor_id;sensor_type;location;lat;lon;timestamp;P1;durP1;ratioP1;P2;durP2;ratioP2
77457;SDS011;66541;49.346;8.648;2023-03-21T00:01:14;7.50;;;2.60;;
77457;SDS011;66541;49.346;8.648;2023-03-21T00:03:40;6.93;;;1.88;;
77457;SDS011;66541;49.346;8.648;2023-03-21T00:06:08;7.43;;;2.20;;
77457;SDS011;66541;49.346;8.648;2023-03-21T00:08:35;11.00;;;2.53;;
77457;SDS011;66541;49.346;8.648;2023-03-21T00:11:02;7.38;;;2.30;;
77457;SDS011;66541;49.346;8.648;2023-03-21T00:13:29;8.30;;;2.22;;
77457;SDS011;66541;49.346;8.648;2023-03-21T00:15:56;9.85;;;2.10;;
77457;SDS011;66541;49.346;8.648;2023-03-21T00:18:23;9.25;;;2.47;;
77457;SDS011;66541;49.346;8.648;2023-03-21T00:20:59;7.15;;;2.05;;
77457;SDS011;66541;49.346;8.648;2023-03-21T00:23:29;8.80;;;2.30;;
77457;SDS011;66541;49.346;8.648;2023-03-21T00:25:55;7.13;;;2.17;;
77457;SDS011;66541;49.346;8.648;2023-03-21T00:28:21;7.60;;;2.38;;
77457;SDS011;66541;49.346;8.648;2023-03-21T00:30:46;7.53;;;2.30;;
77457;SDS011;66541;49.346;8.648;2023-03-21T00:33:12;7.95;;;2.15;;
77457;SDS011;66541;49.346;8.648;2023-03-21T00:35:38;8.38;;;2.28;;
77457;SDS011;66541;49.346;8.648;2023-03-21T00:38:08;6.78;;;2.00;;
77457;SDS011;66541;49.346;8.648;2023-03-21T00:40:34;8.43;;;2.17;;
77457;SDS011;66541;49.346;8.648;2023-03-21T00:42:59;8.35;;;3.00;;
77457;SDS011;66541;49.346;8.648;2023-03-21T00:45:25;8.43;;;2.55;;
77457;SDS011;66541;49.346;8.648;2023-03-21T00:47:50;7.90;;;2.60;;
77457;SDS011;66541;49.346;8.648;2023-03-21T00:50:15;7.65;;;2.55;;
77457;SDS011;66541;49.346;8.648;2023-03-21T00:52:42;7.13;;;2.05;;
77457;SDS011;66541;49.346;8.648;2023-03-21T00:55:09;7.20;;;2.60;;
77457;SDS011;66541;49.346;8.648;2023-03-21T00:57:37;7.35;;;2.22;;
77457;SDS011;66541;49.346;8.648;2023-03-21T01:00:03;8.07;;;2.25;;
77457;SDS011;66541;49.346;8.648;2023-03-21T01:02:31;6.85;;;2.00;;
77457;SDS011;66541;49.346;8.648;2023-03-21T01:04:56;5.93;;;1.80;;
77457;SDS011;66541;49.346;8.648;2023-03-21T01:07:21;7.65;;;2.28;;
77457;SDS011;66541;49.346;8.648;2023-03-21T01:09:47;7.38;;;2.30;;
77457;SDS011;66541;49.346;8.648;2023-03-21T01:12:12;7.55;;;2.00;;
77457;SDS011;66541;49.346;8.648;2023-03-21T01:14:37;7.55;;;2.35;;
77457;SDS011;66541;49.346;8.648;2023-03-21T01:17:03;6.10;;;2.00;;
77457;SDS011;66541;49.346;8.648;2023-03-21T01:19:29;7.35;;;1.80;;
77457;SDS011;66541;49.346;8.648;2023-03-21T01:21:55;8.98;;;1.90;;
77457;SDS011;66541;49.346;8.648;2023-03-21T01:24:20;8.45;;;2.13;;
77457;SDS011;66541;49.346;8.648;2023-03-21T01:26:46;7.80;;;2.13;;
77457;SDS011;66541;49.346;8.648;2023-03-21T01:29:11;8.00;;;2.00;;
77457;SDS011;66541;49.346;8.648;2023-03-21T01:31:36;8.32;;;2.15;;
77457;SDS011;66541;49.346;8.648;2023-03-21T01:34:01;6.45;;;2.13;;
77457;SDS011;66541;49.346;8.648;2023-03-21T01:36:27;7.20;;;2.22;;
77457;SDS011;66541;49.346;8.648;2023-03-21T01:38:52;8.05;;;2.83;;
77457;SDS011;66541;49.346;8.648;2023-03-21T01:41:29;8.45;;;3.13;;
77457;SDS011;66541;49.346;8.648;2023-03-21T01:43:55;6.63;;;1.70;;
77457;SDS011;66541;49.346;8.648;2023-03-21T01:48:48;6.85;;;2.05;;
77457;SDS011;66541;49.346;8.648;2023-03-21T01:51:40;7.82;;;2.20;;
77457;SDS011;66541;49.346;8.648;2023-03-21T01:54:08;6.10;;;2.00;;
77457;SDS011;66541;49.346;8.648;2023-03-21T01:56:39;8.20;;;2.25;;
77457;SDS011;66541;49.346;8.648;2023-03-21T01:59:07;6.63;;;2.15;;
77457;SDS011;66541;49.346;8.648;2023-03-21T02:01:35;8.75;;;2.05;;
77457;SDS011;66541;49.346;8.648;2023-03-21T02:04:02;7.55;;;2.35;;
77457;SDS011;66541;49.346;8.648;2023-03-21T02:06:30;7.10;;;2.35;;
77457;SDS011;66541;49.346;8.648;2023-03-21T02:09:17;7.40;;;2.13;;
77457;SDS011;66541;49.346;8.648;2023-03-21T02:11:44;7.10;;;2.10;;
77457;SDS011;66541;49.346;8.648;2023-03-21T02:14:11;6.38;;;2.10;;
77457;SDS011;66541;49.346;8.648;2023-03-21T02:19:38;10.45;;;2.13;;
77457;SDS011;66541;49.346;8.648;2023-03-21T02:27:33;7.38;;;2.50;;
77457;SDS011;66541;49.346;8.648;2023-03-21T02:35:47;7.68;;;2.85;;
77457;SDS011;66541;49.346;8.648;2023-03-21T02:38:17;9.45;;;2.72;;
77457;SDS011;66541;49.346;8.648;2023-03-21T02:40:49;10.35;;;3.13;;
77457;SDS011;66541;49.346;8.648;2023-03-21T02:48:58;8.68;;;3.47;;
77457;SDS011;66541;49.346;8.648;2023-03-21T02:51:27;7.95;;;2.55;;
77457;SDS011;66541;49.346;8.648;2023-03-21T02:53:58;10.15;;;3.35;;
77457;SDS011;66541;49.346;8.648;2023-03-21T02:56:26;9.32;;;2.78;;
77457;SDS011;66541;49.346;8.648;2023-03-21T02:58:52;7.47;;;2.50;;
77457;SDS011;66541;49.346;8.648;2023-03-21T03:01:17;7.70;;;2.60;;
77457;SDS011;66541;49.346;8.648;2023-03-21T03:03:42;8.88;;;2.80;;
77457;SDS011;66541;49.346;8.648;2023-03-21T03:06:12;7.28;;;2.67;;
77457;SDS011;66541;49.346;8.648;2023-03-21T03:08:42;7.43;;;2.47;;
77457;SDS011;66541;49.346;8.648;2023-03-21T03:11:16;7.88;;;2.83;;
77457;SDS011;66541;49.346;8.648;2023-03-21T03:19:27;8.27;;;2.85;;
77457;SDS011;66541;49.346;8.648;2023-03-21T03:27:27;9.35;;;3.10;;
77457;SDS011;66541;49.346;8.648;2023-03-21T03:29:54;9.02;;;2.78;;
77457;SDS011;66541;49.346;8.648;2023-03-21T03:32:23;7.93;;;2.55;;
77457;SDS011;66541;49.346;8.648;2023-03-21T03:34:54;8.60;;;3.30;;
77457;SDS011;66541;49.346;8.648;2023-03-21T03:37:22;8.35;;;2.78;;
77457;SDS011;66541;49.346;8.648;2023-03-21T03:40:06;7.85;;;2.95;;
77457;SDS011;66541;49.346;8.648;2023-03-21T03:42:47;9.45;;;2.80;;
77457;SDS011;66541;49.346;8.648;2023-03-21T03:45:14;8.52;;;2.70;;
77457;SDS011;66541;49.346;8.648;2023-03-21T03:50:17;9.70;;;2.60;;
77457;SDS011;66541;49.346;8.648;2023-03-21T03:52:55;8.23;;;2.97;;
77457;SDS011;66541;49.346;8.648;2023-03-21T03:55:26;6.97;;;2.08;;
77457;SDS011;66541;49.346;8.648;2023-03-21T03:57:52;7.68;;;3.00;;
77457;SDS011;66541;49.346;8.648;2023-03-21T04:00:18;7.38;;;2.33;;
77457;SDS011;66541;49.346;8.648;2023-03-21T04:02:44;8.15;;;2.67;;
77457;SDS011;66541;49.346;8.648;2023-03-21T04:05:10;7.88;;;2.25;;
77457;SDS011;66541;49.346;8.648;2023-03-21T04:07:36;8.13;;;2.80;;
77457;SDS011;66541;49.346;8.648;2023-03-21T04:10:01;8.57;;;2.65;;
77457;SDS011;66541;49.346;8.648;2023-03-21T04:12:26;9.23;;;2.58;;
77457;SDS011;66541;49.346;8.648;2023-03-21T04:14:52;7.35;;;2.92;;
77457;SDS011;66541;49.346;8.648;2023-03-21T04:17:17;8.38;;;2.70;;
77457;SDS011;66541;49.346;8.648;2023-03-21T04:19:43;8.63;;;2.60;;
77457;SDS011;66541;49.346;8.648;2023-03-21T04:22:09;12.05;;;3.90;;
77457;SDS011;66541;49.346;8.648;2023-03-21T04:24:36;8.90;;;2.60;;
77457;SDS011;66541;49.346;8.648;2023-03-21T04:27:02;7.60;;;2.53;;
77457;SDS011;66541;49.346;8.648;2023-03-21T04:29:29;7.07;;;2.33;;
77457;SDS011;66541;49.346;8.648;2023-03-21T04:31:55;6.95;;;2.75;;
77457;SDS011;66541;49.346;8.648;2023-03-21T04:34:20;8.07;;;3.35;;
77457;SDS011;66541;49.346;8.648;2023-03-21T04:36:48;8.48;;;2.88;;
77457;SDS011;66541;49.346;8.648;2023-03-21T04:39:17;8.07;;;2.83;;
77457;SDS011;66541;49.346;8.648;2023-03-21T04:41:44;9.40;;;2.75;;
77457;SDS011;66541;49.346;8.648;2023-03-21T04:44:10;9.15;;;3.08;;
77457;SDS011;66541;49.346;8.648;2023-03-21T04:46:37;7.40;;;2.42;;
77457;SDS011;66541;49.346;8.648;2023-03-21T04:49:03;10.52;;;3.25;;
77457;SDS011;66541;49.346;8.648;2023-03-21T04:51:28;8.25;;;2.80;;
77457;SDS011;66541;49.346;8.648;2023-03-21T04:53:54;11.18;;;2.80;;
77457;SDS011;66541;49.346;8.648;2023-03-21T04:56:22;8.00;;;3.00;;
77457;SDS011;66541;49.346;8.648;2023-03-21T04:58:58;8.25;;;2.90;;
77457;SDS011;66541;49.346;8.648;2023-03-21T05:01:24;7.72;;;2.58;;
77457;SDS011;66541;49.346;8.648;2023-03-21T05:03:54;7.55;;;2.40;;
77457;SDS011;66541;49.346;8.648;2023-03-21T05:06:23;8.32;;;2.97;;
77457;SDS011;66541;49.346;8.648;2023-03-21T05:08:50;9.52;;;2.88;;
77457;SDS011;66541;49.346;8.648;2023-03-21T05:11:15;9.73;;;3.08;;
77457;SDS011;66541;49.346;8.648;2023-03-21T05:13:40;9.65;;;2.88;;
77457;SDS011;66541;49.346;8.648;2023-03-21T05:16:06;7.40;;;2.65;;
77457;SDS011;66541;49.346;8.648;2023-03-21T05:18:31;11.85;;;3.45;;
77457;SDS011;66541;49.346;8.648;2023-03-21T05:23:28;9.25;;;2.47;;
77457;SDS011;66541;49.346;8.648;2023-03-21T05:25:55;9.55;;;2.72;;
77457;SDS011;66541;49.346;8.648;2023-03-21T05:28:20;8.00;;;2.83;;
77457;SDS011;66541;49.346;8.648;2023-03-21T05:30:46;8.05;;;2.95;;
77457;SDS011;66541;49.346;8.648;2023-03-21T05:33:11;9.02;;;3.10;;
77457;SDS011;66541;49.346;8.648;2023-03-21T05:35:37;8.25;;;2.72;;
77457;SDS011;66541;49.346;8.648;2023-03-21T05:38:03;8.68;;;2.85;;
77457;SDS011;66541;49.346;8.648;2023-03-21T05:40:28;8.13;;;2.80;;
77457;SDS011;66541;49.346;8.648;2023-03-21T05:42:53;10.40;;;2.80;;
77457;SDS011;66541;49.346;8.648;2023-03-21T05:45:19;8.32;;;2.97;;
77457;SDS011;66541;49.346;8.648;2023-03-21T05:47:44;8.10;;;2.75;;
77457;SDS011;66541;49.346;8.648;2023-03-21T05:50:10;10.38;;;3.13;;
77457;SDS011;66541;49.346;8.648;2023-03-21T05:52:37;8.38;;;2.60;;
77457;SDS011;66541;49.346;8.648;2023-03-21T05:55:02;8.13;;;2.50;;
77457;SDS011;66541;49.346;8.648;2023-03-21T05:57:28;8.63;;;3.38;;
77457;SDS011;66541;49.346;8.648;2023-03-21T05:59:53;7.50;;;2.53;;
77457;SDS011;66541;49.346;8.648;2023-03-21T06:02:18;7.88;;;2.78;;
77457;SDS011;66541;49.346;8.648;2023-03-21T06:04:44;7.97;;;2.75;;
77457;SDS011;66541;49.346;8.648;2023-03-21T06:07:09;7.90;;;2.95;;
77457;SDS011;66541;49.346;8.648;2023-03-21T06:09:34;7.18;;;2.67;;
77457;SDS011;66541;49.346;8.648;2023-03-21T06:12:00;8.40;;;2.65;;
77457;SDS011;66541;49.346;8.648;2023-03-21T06:14:25;7.45;;;2.90;;
77457;SDS011;66541;49.346;8.648;2023-03-21T06:16:50;9.23;;;2.72;;
77457;SDS011;66541;49.346;8.648;2023-03-21T06:19:18;7.40;;;2.53;;
77457;SDS011;66541;49.346;8.648;2023-03-21T06:21:43;7.82;;;2.50;;
77457;SDS011;66541;49.346;8.648;2023-03-21T06:24:08;8.40;;;2.75;;
77457;SDS011;66541;49.346;8.648;2023-03-21T06:26:34;8.13;;;2.67;;
77457;SDS011;66541;49.346;8.648;2023-03-21T06:29:00;9.45;;;3.05;;
77457;SDS011;66541;49.346;8.648;2023-03-21T06:31:25;8.80;;;2.50;;
77457;SDS011;66541;49.346;8.648;2023-03-21T06:33:51;9.43;;;2.97;;
77457;SDS011;66541;49.346;8.648;2023-03-21T06:36:17;10.40;;;3.40;;
77457;SDS011;66541;49.346;8.648;2023-03-21T06:38:43;8.50;;;2.22;;
77457;SDS011;66541;49.346;8.648;2023-03-21T06:41:08;9.20;;;2.78;;
77457;SDS011;66541;49.346;8.648;2023-03-21T06:43:34;8.52;;;2.67;;
77457;SDS011;66541;49.346;8.648;2023-03-21T06:45:59;9.95;;;3.42;;
77457;SDS011;66541;49.346;8.648;2023-03-21T06:48:25;9.27;;;3.30;;
77457;SDS011;66541;49.346;8.648;2023-03-21T06:50:51;7.90;;;3.10;;
77457;SDS011;66541;49.346;8.648;2023-03-21T06:53:18;8.90;;;2.83;;
77457;SDS011;66541;49.346;8.648;2023-03-21T06:55:51;8.57;;;2.60;;
77457;SDS011;66541;49.346;8.648;2023-03-21T06:58:16;8.38;;;3.13;;
77457;SDS011;66541;49.346;8.648;2023-03-21T07:00:42;11.20;;;3.50;;
77457;SDS011;66541;49.346;8.648;2023-03-21T07:03:08;9.95;;;3.35;;
77457;SDS011;66541;49.346;8.648;2023-03-21T07:05:34;10.50;;;3.28;;
77457;SDS011;66541;49.346;8.648;2023-03-21T07:08:00;8.55;;;3.13;;
77457;SDS011;66541;49.346;8.648;2023-03-21T07:10:25;8.55;;;2.63;;
77457;SDS011;66541;49.346;8.648;2023-03-21T07:12:50;10.02;;;3.05;;
77457;SDS011;66541;49.346;8.648;2023-03-21T07:15:16;8.23;;;2.65;;
77457;SDS011;66541;49.346;8.648;2023-03-21T07:17:41;8.30;;;2.92;;
77457;SDS011;66541;49.346;8.648;2023-03-21T07:20:06;7.43;;;2.35;;
77457;SDS011;66541;49.346;8.648;2023-03-21T07:22:33;7.88;;;2.60;;
77457;SDS011;66541;49.346;8.648;2023-03-21T07:24:59;10.18;;;2.88;;
77457;SDS011;66541;49.346;8.648;2023-03-21T07:27:24;9.00;;;3.53;;
77457;SDS011;66541;49.346;8.648;2023-03-21T07:29:49;8.82;;;2.40;;
77457;SDS011;66541;49.346;8.648;2023-03-21T07:32:15;8.07;;;2.90;;
77457;SDS011;66541;49.346;8.648;2023-03-21T07:34:40;9.00;;;2.42;;
77457;SDS011;66541;49.346;8.648;2023-03-21T07:37:06;8.63;;;3.25;;
77457;SDS011;66541;49.346;8.648;2023-03-21T07:39:31;8.38;;;2.85;;
77457;SDS011;66541;49.346;8.648;2023-03-21T07:41:58;7.07;;;2.38;;
77457;SDS011;66541;49.346;8.648;2023-03-21T07:44:23;7.45;;;2.85;;
77457;SDS011;66541;49.346;8.648;2023-03-21T07:46:49;8.15;;;2.88;;
77457;SDS011;66541;49.346;8.648;2023-03-21T07:49:14;7.97;;;3.03;;
77457;SDS011;66541;49.346;8.648;2023-03-21T07:51:40;9.02;;;3.50;;
77457;SDS011;66541;49.346;8.648;2023-03-21T07:54:05;7.13;;;2.90;;
77457;SDS011;66541;49.346;8.648;2023-03-21T07:56:30;9.18;;;2.65;;
77457;SDS011;66541;49.346;8.648;2023-03-21T07:58:56;8.68;;;2.95;;
77457;SDS011;66541;49.346;8.648;2023-03-21T08:01:21;9.68;;;2.75;;
77457;SDS011;66541;49.346;8.648;2023-03-21T08:03:47;8.15;;;2.90;;
77457;SDS011;66541;49.346;8.648;2023-03-21T08:06:13;8.77;;;2.90;;
77457;SDS011;66541;49.346;8.648;2023-03-21T08:08:39;8.38;;;2.67;;
77457;SDS011;66541;49.346;8.648;2023-03-21T08:11:04;8.63;;;2.80;;
77457;SDS011;66541;49.346;8.648;2023-03-21T08:13:30;7.80;;;2.55;;
77457;SDS011;66541;49.346;8.648;2023-03-21T08:15:56;7.43;;;2.22;;
77457;SDS011;66541;49.346;8.648;2023-03-21T08:18:21;7.00;;;2.15;;
77457;SDS011;66541;49.346;8.648;2023-03-21T08:20:50;9.27;;;3.03;;
77457;SDS011;66541;49.346;8.648;2023-03-21T08:23:19;6.55;;;2.17;;
77457;SDS011;66541;49.346;8.648;2023-03-21T08:25:45;7.40;;;2.28;;
77457;SDS011;66541;49.346;8.648;2023-03-21T08:28:11;7.15;;;2.40;;
77457;SDS011;66541;49.346;8.648;2023-03-21T08:30:36;7.50;;;2.20;;
77457;SDS011;66541;49.346;8.648;2023-03-21T08:33:01;8.07;;;2.75;;
77457;SDS011;66541;49.346;8.648;2023-03-21T08:35:28;6.95;;;2.17;;
77457;SDS011;66541;49.346;8.648;2023-03-21T08:37:54;6.93;;;2.35;;
77457;SDS011;66541;49.346;8.648;2023-03-21T08:40:19;8.25;;;2.13;;
77457;SDS011;66541;49.346;8.648;2023-03-21T08:42:45;7.70;;;2.38;;
77457;SDS011;66541;49.346;8.648;2023-03-21T08:45:11;8.90;;;2.22;;
77457;SDS011;66541;49.346;8.648;2023-03-21T08:47:38;7.40;;;2.50;;
77457;SDS011;66541;49.346;8.648;2023-03-21T08:50:04;6.65;;;1.83;;
77457;SDS011;66541;49.346;8.648;2023-03-21T08:52:31;8.00;;;2.25;;
77457;SDS011;66541;49.346;8.648;2023-03-21T08:54:57;8.27;;;2.55;;
77457;SDS011;66541;49.346;8.648;2023-03-21T08:57:22;7.18;;;2.22;;
77457;SDS011;66541;49.346;8.648;2023-03-21T08:59:47;6.82;;;2.17;;
77457;SDS011;66541;49.346;8.648;2023-03-21T09:02:13;7.78;;;2.80;;
77457;SDS011;66541;49.346;8.648;2023-03-21T09:04:40;6.32;;;2.22;;
77457;SDS011;66541;49.346;8.648;2023-03-21T09:07:05;7.13;;;2.53;;
77457;SDS011;66541;49.346;8.648;2023-03-21T09:09:31;7.32;;;2.55;;
77457;SDS011;66541;49.346;8.648;2023-03-21T09:11:56;6.32;;;2.17;;
77457;SDS011;66541;49.346;8.648;2023-03-21T09:14:22;7.20;;;2.33;;
77457;SDS011;66541;49.346;8.648;2023-03-21T09:16:47;7.38;;;2.38;;
77457;SDS011;66541;49.346;8.648;2023-03-21T09:19:12;7.82;;;2.85;;
77457;SDS011;66541;49.346;8.648;2023-03-21T09:21:38;7.00;;;1.85;;
77457;SDS011;66541;49.346;8.648;2023-03-21T09:24:03;6.22;;;2.03;;
77457;SDS011;66541;49.346;8.648;2023-03-21T09:26:31;8.13;;;2.55;;
77457;SDS011;66541;49.346;8.648;2023-03-21T09:28:56;6.70;;;1.92;;
77457;SDS011;66541;49.346;8.648;2023-03-21T09:31:22;7.85;;;2.42;;
77457;SDS011;66541;49.346;8.648;2023-03-21T09:33:49;7.18;;;2.58;;
77457;SDS011;66541;49.346;8.648;2023-03-21T09:36:15;7.18;;;2.40;;
77457;SDS011;66541;49.346;8.648;2023-03-21T09:38:43;6.25;;;2.03;;
77457;SDS011;66541;49.346;8.648;2023-03-21T09:49:18;7.10;;;2.20;;
77457;SDS011;66541;49.346;8.648;2023-03-21T09:51:48;7.13;;;2.53;;
77457;SDS011;66541;49.346;8.648;2023-03-21T09:56:46;7.63;;;2.60;;
77457;SDS011;66541;49.346;8.648;2023-03-21T09:59:25;7.15;;;1.95;;
77457;SDS011;66541;49.346;8.648;2023-03-21T10:01:53;8.15;;;2.50;;
77457;SDS011;66541;49.346;8.648;2023-03-21T10:04:19;6.60;;;2.20;;
77457;SDS011;66541;49.346;8.648;2023-03-21T10:06:48;8.15;;;2.25;;
77457;SDS011;66541;49.346;8.648;2023-03-21T10:09:21;13.68;;;1.98;;
77457;SDS011;66541;49.346;8.648;2023-03-21T10:14:35;4.93;;;1.30;;
77457;SDS011;66541;49.346;8.648;2023-03-21T10:17:49;5.88;;;1.40;;
77457;SDS011;66541;49.346;8.648;2023-03-21T10:20:18;6.10;;;1.65;;
77457;SDS011;66541;49.346;8.648;2023-03-21T10:22:45;6.32;;;1.27;;
77457;SDS011;66541;49.346;8.648;2023-03-21T10:25:14;7.75;;;1.55;;
77457;SDS011;66541;49.346;8.648;2023-03-21T10:27:41;5.10;;;1.23;;
77457;SDS011;66541;49.346;8.648;2023-03-21T10:30:07;6.15;;;1.58;;
77457;SDS011;66541;49.346;8.648;2023-03-21T10:32:34;5.80;;;1.40;;
77457;SDS011;66541;49.346;8.648;2023-03-21T10:35:00;5.47;;;1.33;;
77457;SDS011;66541;49.346;8.648;2023-03-21T10:37:28;4.38;;;0.90;;
77457;SDS011;66541;49.346;8.648;2023-03-21T10:39:54;4.57;;;1.13;;
77457;SDS011;66541;49.346;8.648;2023-03-21T10:44:48;5.30;;;0.95;;
77457;SDS011;66541;49.346;8.648;2023-03-21T10:47:29;4.63;;;1.10;;
77457;SDS011;66541;49.346;8.648;2023-03-21T10:50:00;5.70;;;1.25;;
77457;SDS011;66541;49.346;8.648;2023-03-21T10:52:33;5.00;;;1.02;;
77457;SDS011;66541;49.346;8.648;2023-03-21T10:57:51;5.20;;;0.90;;
77457;SDS011;66541;49.346;8.648;2023-03-21T11:00:20;4.97;;;0.95;;
77457;SDS011;66541;49.346;8.648;2023-03-21T11:02:48;3.88;;;0.80;;
77457;SDS011;66541;49.346;8.648;2023-03-21T11:05:22;3.97;;;0.93;;
77457;SDS011;66541;49.346;8.648;2023-03-21T11:07:56;6.72;;;1.15;;
77457;SDS011;66541;49.346;8.648;2023-03-21T11:10:58;6.15;;;1.00;;
77457;SDS011;66541;49.346;8.648;2023-03-21T11:13:18;4.60;;;1.00;;
77457;SDS011;66541;49.346;8.648;2023-03-21T11:15:54;5.03;;;1.00;;
77457;SDS011;66541;49.346;8.648;2023-03-21T11:18:24;2.83;;;0.73;;
77457;SDS011;66541;49.346;8.648;2023-03-21T11:20:52;4.50;;;0.95;;
77457;SDS011;66541;49.346;8.648;2023-03-21T11:23:19;5.40;;;0.80;;
77457;SDS011;66541;49.346;8.648;2023-03-21T11:25:46;4.53;;;1.08;;
77457;SDS011;66541;49.346;8.648;2023-03-21T11:28:20;4.55;;;0.80;;
77457;SDS011;66541;49.346;8.648;2023-03-21T11:30:50;5.72;;;1.15;;
77457;SDS011;66541;49.346;8.648;2023-03-21T11:33:30;4.30;;;0.80;;
77457;SDS011;66541;49.346;8.648;2023-03-21T11:35:58;4.45;;;1.15;;
77457;SDS011;66541;49.346;8.648;2023-03-21T11:38:25;6.85;;;0.70;;
77457;SDS011;66541;49.346;8.648;2023-03-21T11:40:56;4.20;;;1.25;;
77457;SDS011;66541;49.346;8.648;2023-03-21T11:43:25;4.72;;;0.90;;
77457;SDS011;66541;49.346;8.648;2023-03-21T11:45:59;4.20;;;0.80;;
77457;SDS011;66541;49.346;8.648;2023-03-21T11:48:31;5.72;;;1.00;;
77457;SDS011;66541;49.346;8.648;2023-03-21T11:51:05;5.93;;;0.70;;
77457;SDS011;66541;49.346;8.648;2023-03-21T11:56:22;4.25;;;0.95;;
77457;SDS011;66541;49.346;8.648;2023-03-21T12:01:45;6.20;;;0.80;;
77457;SDS011;66541;49.346;8.648;2023-03-21T12:07:02;5.13;;;1.40;;
77457;SDS011;66541;49.346;8.648;2023-03-21T12:09:40;3.53;;;1.10;;
77457;SDS011;66541;49.346;8.648;2023-03-21T12:12:26;3.67;;;0.85;;
77457;SDS011;66541;49.346;8.648;2023-03-21T12:15:12;5.50;;;1.10;;
77457;SDS011;66541;49.346;8.648;2023-03-21T12:18:00;4.95;;;0.98;;
77457;SDS011;66541;49.346;8.648;2023-03-21T12:20:59;4.05;;;0.70;;
77457;SDS011;66541;49.346;8.648;2023-03-21T12:23:47;3.78;;;0.70;;
77457;SDS011;66541;49.346;8.648;2023-03-21T12:26:22;5.70;;;1.00;;
77457;SDS011;66541;49.346;8.648;2023-03-21T12:31:50;6.78;;;1.08;;
77457;SDS011;66541;49.346;8.648;2023-03-21T12:37:20;4.07;;;0.82;;
77457;SDS011;66541;49.346;8.648;2023-03-21T12:40:08;3.58;;;0.82;;
77457;SDS011;66541;49.346;8.648;2023-03-21T12:42:43;4.68;;;1.00;;
77457;SDS011;66541;49.346;8.648;2023-03-21T12:45:11;4.25;;;0.98;;
77457;SDS011;66541;49.346;8.648;2023-03-21T12:47:41;5.50;;;1.13;;
77457;SDS011;66541;49.346;8.648;2023-03-21T12:53:46;4.72;;;0.85;;
77457;SDS011;66541;49.346;8.648;2023-03-21T12:55:55;3.60;;;0.50;;
77457;SDS011;66541;49.346;8.648;2023-03-21T12:58:23;5.05;;;1.10;;
77457;SDS011;66541;49.346;8.648;2023-03-21T13:00:53;4.00;;;0.85;;
77457;SDS011;66541;49.346;8.648;2023-03-21T13:03:22;4.05;;;0.65;;
77457;SDS011;66541;49.346;8.648;2023-03-21T13:05:53;4.60;;;0.98;;
77457;SDS011;66541;49.346;8.648;2023-03-21T13:10:50;5.28;;;0.98;;
77457;SDS011;66541;49.346;8.648;2023-03-21T13:13:21;4.80;;;0.90;;
77457;SDS011;66541;49.346;8.648;2023-03-21T13:24:17;2.67;;;0.70;;
77457;SDS011;66541;49.346;8.648;2023-03-21T13:26:56;3.50;;;0.50;;
77457;SDS011;66541;49.346;8.648;2023-03-21T13:29:25;2.85;;;0.60;;
77457;SDS011;66541;49.346;8.648;2023-03-21T13:31:54;2.97;;;0.50;;
77457;SDS011;66541;49.346;8.648;2023-03-21T13:34:21;3.38;;;0.90;;
77457;SDS011;66541;49.346;8.648;2023-03-21T13:36:48;2.97;;;0.70;;
77457;SDS011;66541;49.346;8.648;2023-03-21T13:39:19;3.65;;;0.50;;
77457;SDS011;66541;49.346;8.648;2023-03-21T13:41:49;4.13;;;0.52;;
77457;SDS011;66541;49.346;8.648;2023-03-21T13:44:18;3.00;;;0.68;;
77457;SDS011;66541;49.346;8.648;2023-03-21T13:46:59;3.03;;;0.50;;
77457;SDS011;66541;49.346;8.648;2023-03-21T13:49:29;2.05;;;0.40;;
77457;SDS011;66541;49.346;8.648;2023-03-21T13:52:00;3.42;;;0.47;;
77457;SDS011;66541;49.346;8.648;2023-03-21T13:54:28;5.40;;;0.93;;
77457;SDS011;66541;49.346;8.648;2023-03-21T13:57:03;2.55;;;0.63;;
77457;SDS011;66541;49.346;8.648;2023-03-21T13:59:40;3.28;;;0.80;;
77457;SDS011;66541;49.346;8.648;2023-03-21T14:04:35;2.05;;;0.40;;
77457;SDS011;66541;49.346;8.648;2023-03-21T14:07:04;5.38;;;0.60;;
77457;SDS011;66541;49.346;8.648;2023-03-21T14:09:38;1.98;;;0.50;;
77457;SDS011;66541;49.346;8.648;2023-03-21T14:12:10;3.22;;;0.57;;
77457;SDS011;66541;49.346;8.648;2023-03-21T14:14:49;3.17;;;0.65;;
77457;SDS011;66541;49.346;8.648;2023-03-21T14:17:23;3.30;;;0.57;;
77457;SDS011;66541;49.346;8.648;2023-03-21T14:19:55;3.28;;;0.65;;
77457;SDS011;66541;49.346;8.648;2023-03-21T14:22:23;2.42;;;0.65;;
77457;SDS011;66541;49.346;8.648;2023-03-21T14:24:58;2.58;;;0.50;;
77457;SDS011;66541;49.346;8.648;2023-03-21T14:27:24;3.75;;;0.47;;
77457;SDS011;66541;49.346;8.648;2023-03-21T14:29:52;3.75;;;0.70;;
77457;SDS011;66541;49.346;8.648;2023-03-21T14:32:21;4.10;;;0.50;;
77457;SDS011;66541;49.346;8.648;2023-03-21T14:34:47;4.70;;;0.70;;
77457;SDS011;66541;49.346;8.648;2023-03-21T14:37:24;3.55;;;0.60;;
77457;SDS011;66541;49.346;8.648;2023-03-21T14:39:56;4.45;;;0.68;;
77457;SDS011;66541;49.346;8.648;2023-03-21T14:42:23;2.80;;;0.52;;
77457;SDS011;66541;49.346;8.648;2023-03-21T14:44:49;4.13;;;0.60;;
77457;SDS011;66541;49.346;8.648;2023-03-21T14:47:19;3.53;;;0.70;;
77457;SDS011;66541;49.346;8.648;2023-03-21T14:49:45;4.72;;;0.93;;
77457;SDS011;66541;49.346;8.648;2023-03-21T14:52:15;4.78;;;0.60;;
77457;SDS011;66541;49.346;8.648;2023-03-21T14:54:44;3.33;;;0.57;;
77457;SDS011;66541;49.346;8.648;2023-03-21T14:57:14;3.63;;;0.50;;
77457;SDS011;66541;49.346;8.648;2023-03-21T14:59:44;1.65;;;0.45;;
77457;SDS011;66541;49.346;8.648;2023-03-21T15:02:14;4.65;;;0.50;;
77457;SDS011;66541;49.346;8.648;2023-03-21T15:04:41;3.67;;;0.65;;
77457;SDS011;66541;49.346;8.648;2023-03-21T15:07:22;2.45;;;0.47;;
77457;SDS011;66541;49.346;8.648;2023-03-21T15:09:56;3.38;;;0.50;;
77457;SDS011;66541;49.346;8.648;2023-03-21T15:12:23;2.10;;;0.40;;
77457;SDS011;66541;49.346;8.648;2023-03-21T15:14:48;3.00;;;0.50;;
77457;SDS011;66541;49.346;8.648;2023-03-21T15:17:14;4.68;;;1.17;;
77457;SDS011;66541;49.346;8.648;2023-03-21T15:19:40;8.45;;;1.08;;
77457;SDS011;66541;49.346;8.648;2023-03-21T15:22:13;3.45;;;0.77;;
77457;SDS011;66541;49.346;8.648;2023-03-21T15:24:40;4.82;;;0.75;;
77457;SDS011;66541;49.346;8.648;2023-03-21T15:27:11;3.53;;;0.70;;
77457;SDS011;66541;49.346;8.648;2023-03-21T15:29:41;2.67;;;0.50;;
77457;SDS011;66541;49.346;8.648;2023-03-21T15:32:11;5.07;;;1.00;;
77457;SDS011;66541;49.346;8.648;2023-03-21T15:34:38;4.25;;;0.80;;
77457;SDS011;66541;49.346;8.648;2023-03-21T15:37:05;3.92;;;1.02;;
77457;SDS011;66541;49.346;8.648;2023-03-21T15:39:31;4.05;;;0.90;;
77457;SDS011;66541;49.346;8.648;2023-03-21T15:42:01;4.57;;;0.82;;
77457;SDS011;66541;49.346;8.648;2023-03-21T15:44:46;6.10;;;1.20;;
77457;SDS011;66541;49.346;8.648;2023-03-21T15:47:13;4.70;;;1.20;;
77457;SDS011;66541;49.346;8.648;2023-03-21T15:49:39;4.68;;;0.82;;
77457;SDS011;66541;49.346;8.648;2023-03-21T15:52:06;8.40;;;2.75;;
77457;SDS011;66541;49.346;8.648;2023-03-21T15:54:41;8.45;;;2.80;;
77457;SDS011;66541;49.346;8.648;2023-03-21T15:57:22;11.25;;;4.88;;
77457;SDS011;66541;49.346;8.648;2023-03-21T15:59:49;9.80;;;3.60;;
77457;SDS011;66541;49.346;8.648;2023-03-21T16:02:15;20.02;;;9.38;;
77457;SDS011;66541;49.346;8.648;2023-03-21T16:04:55;8.32;;;3.10;;
77457;SDS011;66541;49.346;8.648;2023-03-21T16:07:20;7.95;;;1.20;;
77457;SDS011;66541;49.346;8.648;2023-03-21T16:09:48;4.38;;;1.00;;
77457;SDS011;66541;49.346;8.648;2023-03-21T16:12:13;5.80;;;1.10;;
77457;SDS011;66541;49.346;8.648;2023-03-21T16:14:39;5.57;;;1.40;;
77457;SDS011;66541;49.346;8.648;2023-03-21T16:17:16;5.95;;;1.38;;
77457;SDS011;66541;49.346;8.648;2023-03-21T16:19:50;6.43;;;1.20;;
77457;SDS011;66541;49.346;8.648;2023-03-21T16:22:15;5.95;;;1.83;;
77457;SDS011;66541;49.346;8.648;2023-03-21T16:24:41;9.30;;;2.80;;